createdAt,value
2022-07-25T00:01:20.473Z,101311.84
2022-07-25T00:03:47.930Z,101309.41
2022-07-25T00:06:18.037Z,101311.25
2022-07-25T00:08:45.291Z,101300.53
2022-07-25T00:11:12.436Z,101297.56
2022-07-25T00:13:39.362Z,101288.31
2022-07-25T00:16:06.858Z,101291.81
2022-07-25T00:18:34.021Z,101289.97
2022-07-25T00:21:01.172Z,101283.53
2022-07-25T00:23:28.137Z,101283.16
2022-07-25T00:25:55.226Z,101274.22
2022-07-25T00:28:22.242Z,101270.00
2022-07-25T00:30:49.963Z,101274.75
2022-07-25T00:33:17.115Z,101280.34
2022-07-25T00:35:44.149Z,101277.94
2022-07-25T00:38:11.095Z,101284.13
2022-07-25T00:40:38.130Z,101293.22
2022-07-25T00:43:05.145Z,101281.16
2022-07-25T00:45:32.314Z,101283.06
2022-07-25T00:47:59.437Z,101276.97
2022-07-25T00:50:26.586Z,101273.00
2022-07-25T00:52:53.681Z,101266.22
2022-07-25T00:55:21.634Z,101277.56
2022-07-25T00:57:48.673Z,101275.44
2022-07-25T01:00:17.701Z,101269.44
2022-07-25T01:02:46.822Z,101256.41
2022-07-25T01:05:13.920Z,101263.03
2022-07-25T01:07:41.220Z,101261.72
2022-07-25T01:10:09.446Z,101257.66
2022-07-25T01:12:51.896Z,101267.19
2022-07-25T01:15:20.270Z,101259.75
2022-07-25T01:17:47.573Z,101261.63
2022-07-25T01:20:26.010Z,101263.03
2022-07-25T01:22:54.793Z,101263.47
2022-07-25T01:25:23.319Z,101257.19
2022-07-25T01:27:55.569Z,101261.66
2022-07-25T01:30:24.990Z,101262.28
2022-07-25T01:32:52.870Z,101260.19
2022-07-25T01:35:20.187Z,101266.81
2022-07-25T01:37:47.303Z,101261.88
2022-07-25T01:40:15.003Z,101262.34
2022-07-25T01:42:43.415Z,101264.03
2022-07-25T01:45:12.200Z,101259.13
2022-07-25T01:47:39.823Z,101260.59
2022-07-25T01:50:07.915Z,101257.91
2022-07-25T01:52:36.656Z,101251.94
2022-07-25T01:55:04.201Z,101257.13
2022-07-25T01:57:33.305Z,101252.78
2022-07-25T02:00:06.856Z,101250.09
2022-07-25T02:02:33.972Z,101251.50
2022-07-25T02:05:01.001Z,101247.22
2022-07-25T02:07:28.077Z,101238.63
2022-07-25T02:09:56.976Z,101239.63
2022-07-25T02:12:24.150Z,101234.03
2022-07-25T02:14:51.181Z,101240.25
2022-07-25T02:17:18.324Z,101234.88
2022-07-25T02:19:45.597Z,101237.78
2022-07-25T02:22:12.655Z,101239.47
2022-07-25T02:24:39.693Z,101236.63
2022-07-25T02:27:06.807Z,101244.22
2022-07-25T02:29:33.996Z,101243.84
2022-07-25T02:32:00.980Z,101243.63
2022-07-25T02:34:28.083Z,101246.06
2022-07-25T02:36:56.366Z,101252.25
2022-07-25T02:39:23.395Z,101250.19
2022-07-25T02:41:50.309Z,101243.53
2022-07-25T02:44:17.298Z,101244.13
2022-07-25T02:46:44.308Z,101245.50
2022-07-25T02:49:12.416Z,101246.59
2022-07-25T02:51:39.415Z,101252.56
2022-07-25T02:54:06.389Z,101246.41
2022-07-25T02:56:33.455Z,101254.59
2022-07-25T02:59:00.677Z,101247.91
2022-07-25T03:01:27.930Z,101252.84
2022-07-25T03:03:55.073Z,101241.75
2022-07-25T03:06:22.206Z,101247.03
2022-07-25T03:08:49.207Z,101250.06
2022-07-25T03:11:16.913Z,101246.72
2022-07-25T03:13:44.024Z,101251.19
2022-07-25T03:16:11.169Z,101245.81
2022-07-25T03:18:38.160Z,101249.09
2022-07-25T03:21:05.618Z,101254.00
2022-07-25T03:23:32.766Z,101245.41
2022-07-25T03:25:59.924Z,101247.25
2022-07-25T03:28:26.878Z,101250.66
2022-07-25T03:30:54.871Z,101239.53
2022-07-25T03:33:21.968Z,101244.59
2022-07-25T03:35:49.034Z,101241.22
2022-07-25T03:38:16.007Z,101243.91
2022-07-25T03:40:42.984Z,101245.13
2022-07-25T03:43:10.116Z,101245.97
2022-07-25T03:45:37.353Z,101245.59
2022-07-25T03:48:04.667Z,101237.88
2022-07-25T03:50:31.747Z,101248.16
2022-07-25T03:52:58.764Z,101242.25
2022-07-25T03:55:25.850Z,101236.59
2022-07-25T03:57:53.013Z,101233.91
2022-07-25T04:00:20.193Z,101227.66
2022-07-25T04:02:47.300Z,101229.91
2022-07-25T04:05:14.313Z,101230.78
2022-07-25T04:07:41.293Z,101223.19
2022-07-25T04:10:09.274Z,101228.16
2022-07-25T04:12:36.306Z,101223.69
2022-07-25T04:15:03.725Z,101211.25
2022-07-25T04:17:30.968Z,101214.03
2022-07-25T04:19:58.008Z,101220.19
2022-07-25T04:22:24.990Z,101215.63
2022-07-25T04:24:51.923Z,101204.47
2022-07-25T04:27:18.931Z,101208.75
2022-07-25T04:29:45.869Z,101216.63
2022-07-25T04:32:13.790Z,101208.94
2022-07-25T04:34:41.029Z,101191.50
2022-07-25T04:37:08.055Z,101201.84
2022-07-25T04:39:35.123Z,101194.94
2022-07-25T04:42:02.134Z,101203.94
2022-07-25T04:44:31.045Z,101207.78
2022-07-25T04:46:59.144Z,101208.19
2022-07-25T04:49:26.147Z,101198.69
2022-07-25T04:51:53.115Z,101201.22
2022-07-25T04:54:20.188Z,101190.19
2022-07-25T04:56:47.155Z,101189.50
2022-07-25T04:59:15.939Z,101189.19
2022-07-25T05:01:42.992Z,101185.81
2022-07-25T05:04:10.353Z,101182.34
2022-07-25T05:06:37.477Z,101188.09
2022-07-25T05:09:04.604Z,101178.75
2022-07-25T05:11:31.625Z,101175.53
2022-07-25T05:13:58.617Z,101176.91
2022-07-25T05:16:38.327Z,101166.56
2022-07-25T05:19:06.483Z,101167.34
2022-07-25T05:21:33.459Z,101169.53
2022-07-25T05:24:00.486Z,101171.38
2022-07-25T05:26:27.481Z,101172.38
2022-07-25T05:28:54.945Z,101166.75
2022-07-25T05:31:21.932Z,101159.75
2022-07-25T05:33:49.010Z,101155.25
2022-07-25T05:36:16.890Z,101154.97
2022-07-25T05:38:43.952Z,101144.13
2022-07-25T05:41:10.910Z,101147.78
2022-07-25T05:43:38.048Z,101142.91
2022-07-25T05:46:06.281Z,101142.44
2022-07-25T05:48:33.634Z,101146.34
2022-07-25T05:51:00.816Z,101152.59
2022-07-25T05:53:27.806Z,101152.09
2022-07-25T05:55:55.014Z,101155.31
2022-07-25T05:58:27.509Z,101155.63
2022-07-25T06:00:57.364Z,101140.06
2022-07-25T06:03:24.414Z,101142.66
2022-07-25T06:05:51.514Z,101143.13
2022-07-25T06:08:18.485Z,101142.38
2022-07-25T06:10:45.495Z,101137.63
2022-07-25T06:13:13.330Z,101135.94
2022-07-25T06:15:44.341Z,101140.41
2022-07-25T06:18:12.702Z,101124.81
2022-07-25T06:20:39.684Z,101122.06
2022-07-25T06:23:08.171Z,101121.16
2022-07-25T06:25:35.347Z,101118.03
2022-07-25T06:28:02.582Z,101116.75
2022-07-25T06:30:29.773Z,101109.84
2022-07-25T06:32:56.845Z,101110.19
2022-07-25T06:35:24.101Z,101111.50
2022-07-25T06:37:51.166Z,101103.44
2022-07-25T06:40:18.336Z,101107.22
2022-07-25T06:42:47.688Z,101113.38
2022-07-25T06:45:15.728Z,101108.09
2022-07-25T06:47:44.580Z,101112.72
2022-07-25T06:50:15.558Z,101103.25
2022-07-25T06:52:43.274Z,101100.25
2022-07-25T06:55:12.704Z,101094.94
2022-07-25T06:57:40.749Z,101097.38
2022-07-25T07:00:11.813Z,101087.91
2022-07-25T07:03:08.374Z,101085.53
2022-07-25T07:05:37.190Z,101082.91
2022-07-25T07:08:04.946Z,101084.31
2022-07-25T07:10:32.305Z,101077.66
2022-07-25T07:13:15.158Z,101073.47
2022-07-25T07:15:50.557Z,101077.84
2022-07-25T07:18:19.606Z,101072.88
2022-07-25T07:20:47.467Z,101069.00
2022-07-25T07:23:16.591Z,101061.13
2022-07-25T07:25:46.103Z,101054.75
2022-07-25T07:28:13.302Z,101055.59
2022-07-25T07:31:13.360Z,101059.72
2022-07-25T07:33:27.357Z,101050.59
2022-07-25T07:35:56.913Z,101065.41
2022-07-25T07:38:25.631Z,101051.72
2022-07-25T07:40:53.828Z,101045.31
2022-07-25T07:43:23.109Z,101042.41
2022-07-25T07:45:52.036Z,101052.66
2022-07-25T07:48:19.012Z,101048.31
2022-07-25T07:50:46.088Z,101047.78
2022-07-25T07:53:13.145Z,101047.00
2022-07-25T07:55:48.199Z,101035.00
2022-07-25T07:58:18.874Z,101030.41
2022-07-25T08:00:49.510Z,101019.41
2022-07-25T08:03:21.292Z,101019.63
2022-07-25T08:05:49.204Z,101026.34
2022-07-25T08:08:16.769Z,101019.03
2022-07-25T08:10:47.030Z,101018.69
2022-07-25T08:13:21.045Z,101015.09
2022-07-25T08:15:52.238Z,101017.97
2022-07-25T08:18:19.901Z,101017.66
2022-07-25T08:20:48.593Z,101012.38
2022-07-25T08:23:16.671Z,101014.19
2022-07-25T08:25:44.759Z,101013.63
2022-07-25T08:28:12.830Z,101009.13
2022-07-25T08:30:41.101Z,100997.84
2022-07-25T08:33:13.126Z,100997.09
2022-07-25T08:35:42.052Z,101002.06
2022-07-25T08:38:11.571Z,101005.34
2022-07-25T08:40:39.073Z,100991.81
2022-07-25T08:43:06.319Z,100994.50
2022-07-25T08:45:33.799Z,100989.25
2022-07-25T08:48:12.621Z,100981.19
2022-07-25T08:50:40.143Z,100991.66
2022-07-25T08:53:32.106Z,100981.56
2022-07-25T08:55:54.435Z,100989.25
2022-07-25T08:58:21.620Z,100986.72
2022-07-25T09:00:48.752Z,100987.66
2022-07-25T09:03:15.832Z,100989.03
2022-07-25T09:05:43.887Z,100985.25
2022-07-25T09:08:20.060Z,100983.50
2022-07-25T09:10:52.911Z,100976.38
2022-07-25T09:13:23.578Z,100976.72
2022-07-25T09:16:00.494Z,100966.75
2022-07-25T09:18:28.180Z,100971.69
2022-07-25T09:20:59.131Z,100979.31
2022-07-25T09:23:38.485Z,100955.81
2022-07-25T09:26:14.964Z,100965.41
2022-07-25T09:28:53.605Z,100965.63
2022-07-25T09:31:20.970Z,100968.88
2022-07-25T09:33:59.280Z,100958.03
2022-07-25T09:36:26.473Z,100969.78
2022-07-25T09:39:00.877Z,100958.53
2022-07-25T09:41:39.570Z,100959.69
2022-07-25T09:44:29.690Z,100968.06
2022-07-25T09:47:13.965Z,100969.69
2022-07-25T09:49:44.053Z,100958.00
2022-07-25T09:52:12.349Z,100954.06
2022-07-25T09:54:40.826Z,100948.59
2022-07-25T09:57:07.844Z,100943.78
2022-07-25T09:59:36.004Z,100928.81
2022-07-25T10:02:50.266Z,100940.50
2022-07-25T10:05:51.653Z,100925.06
2022-07-25T10:08:20.330Z,100921.06
2022-07-25T10:10:47.385Z,100909.75
2022-07-25T10:13:18.044Z,100915.16
2022-07-25T10:15:53.095Z,100915.22
2022-07-25T10:18:27.650Z,100914.31
2022-07-25T10:21:25.714Z,100912.44
2022-07-25T10:24:07.165Z,100912.50
2022-07-25T10:26:40.528Z,100911.38
2022-07-25T10:29:13.152Z,100895.66
2022-07-25T10:31:51.178Z,100893.97
2022-07-25T10:34:31.766Z,100895.69
2022-07-25T10:37:14.369Z,100881.75
2022-07-25T10:39:48.137Z,100894.03
2022-07-25T10:42:21.097Z,100883.44
2022-07-25T10:44:53.710Z,100876.59
2022-07-25T10:47:26.498Z,100877.81
2022-07-25T10:50:34.646Z,100871.31
2022-07-25T10:53:07.909Z,100877.66
2022-07-25T10:55:37.009Z,100869.22
2022-07-25T10:58:22.326Z,100880.47
2022-07-25T11:00:51.291Z,100875.44
2022-07-25T11:03:18.947Z,100861.09
2022-07-25T11:05:51.730Z,100844.44
2022-07-25T11:08:22.126Z,100846.72
2022-07-25T11:10:53.443Z,100843.09
2022-07-25T11:13:20.823Z,100843.06
2022-07-25T11:15:48.498Z,100846.63
2022-07-25T11:18:15.620Z,100836.19
2022-07-25T11:20:45.593Z,100839.06
2022-07-25T11:23:12.610Z,100830.72
2022-07-25T11:25:42.290Z,100831.63
2022-07-25T11:28:09.425Z,100824.81
2022-07-25T11:30:36.590Z,100835.50
2022-07-25T11:33:04.891Z,100811.16
2022-07-25T11:35:33.822Z,100815.94
2022-07-25T11:38:03.124Z,100812.44
2022-07-25T11:40:32.768Z,100806.19
2022-07-25T11:43:00.111Z,100813.31
2022-07-25T11:45:34.346Z,100798.97
2022-07-25T11:48:11.724Z,100790.47
2022-07-25T11:50:43.800Z,100787.78
2022-07-25T11:53:14.657Z,100779.59
2022-07-25T11:55:43.189Z,100776.75
2022-07-25T11:58:15.380Z,100772.53
2022-07-25T12:00:48.866Z,100771.34
2022-07-25T12:03:21.072Z,100764.72
2022-07-25T12:05:49.457Z,100757.13
2022-07-25T12:08:22.986Z,100759.88
2022-07-25T12:10:51.484Z,100754.50
2022-07-25T12:13:30.357Z,100763.56
2022-07-25T12:15:59.712Z,100758.78
2022-07-25T12:18:27.460Z,100750.06
2022-07-25T12:20:54.630Z,100753.22
2022-07-25T12:23:22.032Z,100737.19
2022-07-25T12:25:49.519Z,100733.94
2022-07-25T12:28:16.653Z,100726.09
2022-07-25T12:30:46.435Z,100721.78
2022-07-25T12:33:14.425Z,100732.22
2022-07-25T12:35:42.654Z,100719.88
2022-07-25T12:38:11.285Z,100732.47
2022-07-25T12:40:38.841Z,100715.69
2022-07-25T12:43:06.196Z,100713.53
2022-07-25T12:45:33.634Z,100706.63
2022-07-25T12:48:00.721Z,100704.75
2022-07-25T12:50:27.736Z,100701.78
2022-07-25T12:52:55.026Z,100700.38
2022-07-25T12:55:22.270Z,100711.16
2022-07-25T12:57:49.971Z,100695.53
2022-07-25T13:00:21.471Z,100686.31
2022-07-25T13:02:52.156Z,100691.94
2022-07-25T13:05:20.372Z,100690.13
2022-07-25T13:07:49.256Z,100680.38
2022-07-25T13:10:20.435Z,100679.34
2022-07-25T13:12:48.523Z,100677.88
2022-07-25T13:15:15.802Z,100673.59
2022-07-25T13:17:42.861Z,100670.84
2022-07-25T13:20:11.013Z,100665.81
2022-07-25T13:22:38.218Z,100659.88
2022-07-25T13:25:05.953Z,100654.84
2022-07-25T13:27:33.137Z,100654.84
2022-07-25T13:30:00.158Z,100656.50
2022-07-25T13:32:28.429Z,100658.31
2022-07-25T13:34:55.682Z,100646.75
2022-07-25T13:37:23.237Z,100650.38
2022-07-25T13:39:50.433Z,100627.47
2022-07-25T13:42:23.746Z,100620.84
2022-07-25T13:44:50.895Z,100619.19
2022-07-25T13:47:26.915Z,100619.69
2022-07-25T13:49:57.446Z,100633.28
2022-07-25T13:52:25.487Z,100616.56
2022-07-25T13:54:54.222Z,100614.28
2022-07-25T13:57:21.231Z,100603.66
2022-07-25T13:59:48.739Z,100605.88
2022-07-25T14:02:15.869Z,100603.97
2022-07-25T14:04:42.857Z,100602.09
2022-07-25T14:07:09.989Z,100592.50
2022-07-25T14:09:37.104Z,100582.63
2022-07-25T14:12:12.639Z,100588.25
2022-07-25T14:14:40.753Z,100589.53
2022-07-25T14:17:08.132Z,100583.84
2022-07-25T14:19:35.178Z,100576.22
2022-07-25T14:22:02.143Z,100595.19
2022-07-25T14:24:29.181Z,100579.03
2022-07-25T14:26:56.261Z,100575.78
2022-07-25T14:29:27.272Z,100571.00
2022-07-25T14:31:57.482Z,100567.97
2022-07-25T14:34:24.621Z,100552.97
2022-07-25T14:36:51.856Z,100551.53
2022-07-25T14:39:22.132Z,100552.03
2022-07-25T14:41:49.244Z,100541.50
2022-07-25T14:44:16.287Z,100554.28
2022-07-25T14:46:44.119Z,100532.56
2022-07-25T14:49:16.580Z,100531.78
2022-07-25T14:51:45.681Z,100527.50
2022-07-25T14:54:12.834Z,100523.09
2022-07-25T14:56:40.083Z,100514.59
2022-07-25T14:59:08.363Z,100517.50
2022-07-25T15:01:36.718Z,100510.19
2022-07-25T15:04:04.028Z,100521.16
2022-07-25T15:06:31.775Z,100486.00
2022-07-25T15:08:58.974Z,100511.03
2022-07-25T15:11:29.287Z,100510.16
2022-07-25T15:13:57.250Z,100506.56
2022-07-25T15:16:24.859Z,100498.72
2022-07-25T15:19:15.210Z,100488.06
2022-07-25T15:21:40.448Z,100485.81
2022-07-25T15:24:07.939Z,100492.38
2022-07-25T15:26:35.194Z,100489.03
2022-07-25T15:29:02.709Z,100484.72
2022-07-25T15:31:29.930Z,100486.22
2022-07-25T15:33:57.525Z,100483.94
2022-07-25T15:36:29.401Z,100481.28
2022-07-25T15:38:57.209Z,100480.59
2022-07-25T15:41:24.247Z,100477.47
2022-07-25T15:43:52.731Z,100475.31
2022-07-25T15:46:19.901Z,100469.63
2022-07-25T15:48:47.118Z,100473.38
2022-07-25T15:51:18.999Z,100474.38
2022-07-25T15:53:46.116Z,100466.38
2022-07-25T15:56:16.538Z,100468.19
2022-07-25T15:58:44.495Z,100463.50
2022-07-25T16:01:11.821Z,100460.84
2022-07-25T16:03:38.987Z,100464.28
2022-07-25T16:06:06.326Z,100458.00
2022-07-25T16:08:34.759Z,100452.22
2022-07-25T16:11:02.629Z,100469.44
2022-07-25T16:13:30.815Z,100449.72
2022-07-25T16:15:57.978Z,100453.28
2022-07-25T16:18:26.891Z,100457.25
2022-07-25T16:20:54.074Z,100444.03
2022-07-25T16:23:23.144Z,100447.44
2022-07-25T16:25:50.210Z,100438.88
2022-07-25T16:28:17.234Z,100437.00
2022-07-25T16:30:44.278Z,100428.41
2022-07-25T16:33:11.833Z,100423.88
2022-07-25T16:35:38.975Z,100412.56
2022-07-25T16:38:06.466Z,100417.94
2022-07-25T16:40:33.536Z,100411.03
2022-07-25T16:43:00.510Z,100413.09
2022-07-25T16:45:28.246Z,100406.16
2022-07-25T16:47:55.583Z,100407.59
2022-07-25T16:50:22.687Z,100396.66
2022-07-25T16:52:49.728Z,100402.69
2022-07-25T16:55:17.112Z,100390.69
2022-07-25T16:57:44.070Z,100400.50
2022-07-25T17:00:12.001Z,100388.34
2022-07-25T17:02:39.816Z,100389.56
2022-07-25T17:05:07.153Z,100389.88
2022-07-25T17:07:35.143Z,100375.44
2022-07-25T17:10:05.576Z,100381.69
2022-07-25T17:12:32.711Z,100378.97
2022-07-25T17:14:59.786Z,100384.47
2022-07-25T17:17:26.714Z,100380.06
2022-07-25T17:19:58.071Z,100375.38
2022-07-25T17:22:26.953Z,100380.31
2022-07-25T17:24:54.010Z,100370.13
2022-07-25T17:27:21.024Z,100368.69
2022-07-25T17:29:48.011Z,100363.56
2022-07-25T17:32:14.988Z,100361.34
2022-07-25T17:34:42.061Z,100355.47
2022-07-25T17:37:09.186Z,100355.69
2022-07-25T17:39:36.206Z,100352.75
2022-07-25T17:42:07.291Z,100344.66
2022-07-25T17:44:35.097Z,100334.03
2022-07-25T17:47:03.422Z,100335.09
2022-07-25T17:49:30.844Z,100327.28
2022-07-25T17:51:57.883Z,100336.19
2022-07-25T17:54:24.883Z,100330.06
2022-07-25T17:56:52.120Z,100332.66
2022-07-25T17:59:19.183Z,100327.63
2022-07-25T18:01:46.309Z,100310.81
2022-07-25T18:04:14.408Z,100315.31
2022-07-25T18:06:41.531Z,100317.22
2022-07-25T18:09:08.917Z,100315.44
2022-07-25T18:11:36.592Z,100310.59
2022-07-25T18:14:03.644Z,100307.97
2022-07-25T18:16:30.791Z,100310.78
2022-07-25T18:18:57.899Z,100310.88
2022-07-25T18:21:25.184Z,100316.94
2022-07-25T18:23:52.592Z,100311.19
2022-07-25T18:26:21.808Z,100318.00
2022-07-25T18:28:48.907Z,100316.88
2022-07-25T18:31:15.981Z,100312.13
2022-07-25T18:33:43.149Z,100319.53
2022-07-25T18:36:10.255Z,100319.34
2022-07-25T18:38:37.783Z,100329.66
2022-07-25T18:41:28.087Z,100322.75
2022-07-25T18:43:53.268Z,100326.66
2022-07-25T18:46:20.650Z,100322.47
2022-07-25T18:48:47.998Z,100331.94
2022-07-25T18:51:15.166Z,100319.75
2022-07-25T18:53:47.346Z,100329.91
2022-07-25T18:56:14.913Z,100322.19
2022-07-25T18:58:42.048Z,100336.00
2022-07-25T19:01:09.523Z,100336.81
2022-07-25T19:03:37.675Z,100340.34
2022-07-25T19:06:07.824Z,100337.44
2022-07-25T19:08:35.458Z,100340.00
2022-07-25T19:11:02.468Z,100338.72
2022-07-25T19:16:16.660Z,100330.03
2022-07-25T19:18:43.797Z,100330.19
2022-07-25T19:21:10.923Z,100333.72
2022-07-25T19:23:38.072Z,100333.59
2022-07-25T19:26:06.262Z,100337.16
2022-07-25T19:28:34.846Z,100338.59
2022-07-25T19:31:02.164Z,100338.53
2022-07-25T19:33:35.883Z,100341.47
2022-07-25T19:36:04.200Z,100331.91
2022-07-25T19:38:31.493Z,100329.50
2022-07-25T19:40:59.070Z,100339.13
2022-07-25T19:43:26.613Z,100330.75
2022-07-25T19:45:53.824Z,100335.00
2022-07-25T19:48:23.906Z,100330.47
2022-07-25T19:50:52.383Z,100337.03
2022-07-25T19:53:20.682Z,100332.97
2022-07-25T19:55:51.887Z,100326.72
2022-07-25T19:58:19.042Z,100334.50
2022-07-25T20:00:46.126Z,100333.63
2022-07-25T20:03:13.359Z,100326.00
2022-07-25T20:05:42.128Z,100325.28
2022-07-25T20:08:09.085Z,100318.69
2022-07-25T20:10:36.088Z,100323.16
2022-07-25T20:13:04.880Z,100321.16
2022-07-25T20:15:32.608Z,100311.03
2022-07-25T20:18:00.014Z,100310.91
2022-07-25T20:20:27.782Z,100310.25
2022-07-25T20:22:54.973Z,100306.66
2022-07-25T20:25:22.220Z,100308.41
2022-07-25T20:27:49.873Z,100312.34
2022-07-25T20:30:18.291Z,100318.47
2022-07-25T20:32:45.661Z,100306.53
2022-07-25T20:35:12.799Z,100317.72
2022-07-25T20:37:40.129Z,100312.59
2022-07-25T20:40:09.779Z,100313.34
2022-07-25T20:42:37.800Z,100314.84
2022-07-25T20:45:07.124Z,100312.69
2022-07-25T20:47:34.383Z,100316.09
2022-07-25T20:50:02.219Z,100314.94
2022-07-25T20:52:30.314Z,100315.47
2022-07-25T20:54:57.371Z,100314.72
2022-07-25T20:57:24.488Z,100309.44
2022-07-25T20:59:51.452Z,100300.72
2022-07-25T21:02:18.658Z,100292.88
2022-07-25T21:04:48.371Z,100287.06
2022-07-25T21:07:17.292Z,100285.16
2022-07-25T21:09:45.121Z,100282.97
2022-07-25T21:12:12.067Z,100275.38
2022-07-25T21:14:39.062Z,100276.97
2022-07-25T21:17:06.132Z,100265.88
2022-07-25T21:19:33.501Z,100266.25
2022-07-25T21:22:01.757Z,100265.38
2022-07-25T21:24:28.821Z,100272.19
2022-07-25T21:26:55.862Z,100257.72
2022-07-25T21:29:22.877Z,100252.69
2022-07-25T21:31:49.974Z,100253.88
2022-07-25T21:34:19.973Z,100258.28
2022-07-25T21:36:47.063Z,100250.59
2022-07-25T21:39:14.519Z,100257.41
2022-07-25T21:41:43.686Z,100254.22
2022-07-25T21:44:11.358Z,100242.50
2022-07-25T21:46:38.443Z,100242.13
2022-07-25T21:49:41.514Z,100240.47
2022-07-25T21:52:13.680Z,100229.13
2022-07-25T21:54:42.914Z,100226.19
2022-07-25T21:57:13.326Z,100223.00
2022-07-25T21:59:42.672Z,100214.66
2022-07-25T22:03:06.035Z,100205.31
2022-07-25T22:05:33.608Z,100204.84
2022-07-25T22:08:00.876Z,100200.06
2022-07-25T22:10:28.103Z,100197.59
2022-07-25T22:12:55.291Z,100191.97
2022-07-25T22:15:22.636Z,100198.88
2022-07-25T22:17:50.283Z,100190.63
2022-07-25T22:20:19.842Z,100193.09
2022-07-25T22:22:50.388Z,100186.97
2022-07-25T22:25:17.914Z,100184.50
2022-07-25T22:27:45.415Z,100188.41
2022-07-25T22:30:18.458Z,100178.19
2022-07-25T22:32:48.588Z,100180.00
2022-07-25T22:35:16.425Z,100184.88
2022-07-25T22:37:45.376Z,100172.56
2022-07-25T22:40:13.383Z,100173.75
2022-07-25T22:42:40.787Z,100179.56
2022-07-25T22:45:09.087Z,100167.31
2022-07-25T22:47:36.332Z,100168.13
2022-07-25T22:50:05.485Z,100168.66
2022-07-25T22:52:35.095Z,100170.53
2022-07-25T22:55:02.770Z,100169.50
2022-07-25T22:57:30.009Z,100169.41
2022-07-25T23:00:09.878Z,100175.53
2022-07-25T23:02:38.414Z,100188.31
2022-07-25T23:05:07.286Z,100215.44
2022-07-25T23:07:35.158Z,100206.50
2022-07-25T23:10:04.184Z,100188.50
2022-07-25T23:12:32.960Z,100168.94
2022-07-25T23:15:00.186Z,100161.94
2022-07-25T23:17:27.567Z,100153.69
2022-07-25T23:19:56.515Z,100151.47
2022-07-25T23:22:28.459Z,100141.75
2022-07-25T23:24:56.145Z,100130.22
2022-07-25T23:27:24.416Z,100118.34
2022-07-25T23:29:52.411Z,100128.91
2022-07-25T23:32:19.682Z,100137.56
2022-07-25T23:34:46.931Z,100143.81
2022-07-25T23:37:14.004Z,100134.16
2022-07-25T23:39:41.083Z,100130.53
2022-07-25T23:42:08.171Z,100141.84
2022-07-25T23:45:21.786Z,100135.16
2022-07-25T23:47:52.758Z,100132.03
2022-07-25T23:50:20.363Z,100140.78
2022-07-25T23:52:47.543Z,100144.53
2022-07-25T23:55:14.767Z,100149.66
2022-07-25T23:57:41.892Z,100136.28
